Terminal Aerodrome Forecast
Issued by NWS

Home | Current Version | Previous Version | Text Only | Print | Product List | Glossary On
Versions: 1 2 3 4 5 6 7 8 9 10 11 12 13 14 15 16 17 18 19 20 21 22 23 24 25 26 27 28 29 30 31 32 33 34 35 36 37
000
FTUS43 KDMX 262323
TAFMCW
TAF
KMCW 262323Z 2700/2724 01011KT 6SM BR OVC006
     FM270200 01010KT 3SM -FZDZSN BR OVC005
     FM270600 34012KT 2SM -SN BR OVC005
     FM271500 32014KT P6SM BKN009=

USA.gov is the U.S. government's official web portal to all federal, state and local government web resources and services.